sensor_id;sensor_type;location;lat;lon;timestamp;pressure;altitude;pressure_sealevel;temperature;humidity
25722;BME280;13578;53.450;15.496;2023-05-25T00:01:58;100333.91;;;9.48;100.00
25722;BME280;13578;53.450;15.496;2023-05-25T00:05:04;100331.81;;;9.52;100.00
25722;BME280;13578;53.450;15.496;2023-05-25T00:08:05;100338.41;;;9.49;100.00
25722;BME280;13578;53.450;15.496;2023-05-25T00:11:06;100334.75;;;9.49;100.00
25722;BME280;13578;53.450;15.496;2023-05-25T00:14:07;100333.28;;;9.45;100.00
25722;BME280;13578;53.450;15.496;2023-05-25T00:17:07;100332.16;;;9.47;100.00
25722;BME280;13578;53.450;15.496;2023-05-25T00:20:09;100332.38;;;9.44;100.00
25722;BME280;13578;53.450;15.496;2023-05-25T00:23:10;100333.84;;;9.37;100.00
25722;BME280;13578;53.450;15.496;2023-05-25T00:26:10;100333.97;;;9.35;100.00
25722;BME280;13578;53.450;15.496;2023-05-25T00:29:11;100331.19;;;9.24;100.00
25722;BME280;13578;53.450;15.496;2023-05-25T00:32:14;100329.00;;;9.16;100.00
25722;BME280;13578;53.450;15.496;2023-05-25T00:35:14;100323.03;;;9.11;100.00
25722;BME280;13578;53.450;15.496;2023-05-25T00:38:16;100318.41;;;9.12;100.00
25722;BME280;13578;53.450;15.496;2023-05-25T00:41:17;100310.44;;;9.09;100.00
25722;BME280;13578;53.450;15.496;2023-05-25T00:44:18;100305.47;;;9.14;100.00
25722;BME280;13578;53.450;15.496;2023-05-25T00:47:20;100309.16;;;9.26;100.00
25722;BME280;13578;53.450;15.496;2023-05-25T00:50:39;100314.28;;;9.30;100.00
25722;BME280;13578;53.450;15.496;2023-05-25T00:53:41;100309.19;;;9.37;100.00
25722;BME280;13578;53.450;15.496;2023-05-25T00:56:46;100321.69;;;9.41;100.00
25722;BME280;13578;53.450;15.496;2023-05-25T00:59:50;100332.00;;;9.37;100.00
25722;BME280;13578;53.450;15.496;2023-05-25T01:02:51;100321.25;;;9.34;100.00
25722;BME280;13578;53.450;15.496;2023-05-25T01:05:55;100309.09;;;9.38;100.00
25722;BME280;13578;53.450;15.496;2023-05-25T01:09:02;100325.63;;;9.37;100.00
25722;BME280;13578;53.450;15.496;2023-05-25T01:12:03;100319.06;;;9.40;100.00
25722;BME280;13578;53.450;15.496;2023-05-25T01:15:05;100317.66;;;9.34;100.00
25722;BME280;13578;53.450;15.496;2023-05-25T01:18:06;100320.75;;;9.29;100.00
25722;BME280;13578;53.450;15.496;2023-05-25T01:21:13;100320.53;;;9.32;100.00
25722;BME280;13578;53.450;15.496;2023-05-25T01:24:17;100318.00;;;9.29;100.00
25722;BME280;13578;53.450;15.496;2023-05-25T01:27:32;100316.31;;;9.15;100.00
25722;BME280;13578;53.450;15.496;2023-05-25T01:30:36;100322.84;;;9.01;100.00
25722;BME280;13578;53.450;15.496;2023-05-25T01:33:41;100319.03;;;8.91;100.00
25722;BME280;13578;53.450;15.496;2023-05-25T01:36:43;100310.53;;;8.83;100.00
25722;BME280;13578;53.450;15.496;2023-05-25T01:39:44;100321.81;;;8.78;100.00
25722;BME280;13578;53.450;15.496;2023-05-25T01:42:44;100314.84;;;8.74;100.00
25722;BME280;13578;53.450;15.496;2023-05-25T01:45:46;100317.91;;;8.69;100.00
25722;BME280;13578;53.450;15.496;2023-05-25T01:48:54;100314.41;;;8.67;100.00
25722;BME280;13578;53.450;15.496;2023-05-25T01:52:14;100327.44;;;8.64;100.00
25722;BME280;13578;53.450;15.496;2023-05-25T01:55:18;100333.16;;;8.61;100.00
25722;BME280;13578;53.450;15.496;2023-05-25T01:58:21;100348.25;;;8.66;100.00
25722;BME280;13578;53.450;15.496;2023-05-25T02:01:24;100343.16;;;8.86;100.00
25722;BME280;13578;53.450;15.496;2023-05-25T02:04:26;100341.19;;;8.88;100.00
25722;BME280;13578;53.450;15.496;2023-05-25T02:07:27;100351.91;;;8.91;100.00
25722;BME280;13578;53.450;15.496;2023-05-25T02:10:28;100345.25;;;8.82;100.00
25722;BME280;13578;53.450;15.496;2023-05-25T02:13:28;100345.81;;;8.74;100.00
25722;BME280;13578;53.450;15.496;2023-05-25T02:16:29;100336.59;;;8.76;100.00
25722;BME280;13578;53.450;15.496;2023-05-25T02:19:30;100334.66;;;8.65;100.00
25722;BME280;13578;53.450;15.496;2023-05-25T02:22:31;100342.06;;;8.76;100.00
25722;BME280;13578;53.450;15.496;2023-05-25T02:25:32;100335.97;;;8.72;100.00
25722;BME280;13578;53.450;15.496;2023-05-25T02:28:32;100330.94;;;8.66;100.00
25722;BME280;13578;53.450;15.496;2023-05-25T02:31:33;100329.78;;;8.57;100.00
25722;BME280;13578;53.450;15.496;2023-05-25T02:34:34;100329.84;;;8.55;100.00
25722;BME280;13578;53.450;15.496;2023-05-25T02:37:34;100343.91;;;8.51;100.00
25722;BME280;13578;53.450;15.496;2023-05-25T02:40:35;100344.09;;;8.35;100.00
25722;BME280;13578;53.450;15.496;2023-05-25T02:43:36;100336.91;;;8.21;100.00
25722;BME280;13578;53.450;15.496;2023-05-25T02:46:36;100338.19;;;8.15;100.00
25722;BME280;13578;53.450;15.496;2023-05-25T02:49:37;100327.47;;;8.12;100.00
25722;BME280;13578;53.450;15.496;2023-05-25T02:52:37;100327.47;;;8.25;100.00
25722;BME280;13578;53.450;15.496;2023-05-25T02:55:39;100330.53;;;8.33;100.00
25722;BME280;13578;53.450;15.496;2023-05-25T02:58:39;100328.25;;;8.27;100.00
25722;BME280;13578;53.450;15.496;2023-05-25T03:01:40;100325.31;;;8.17;100.00
25722;BME280;13578;53.450;15.496;2023-05-25T03:04:41;100329.00;;;8.16;100.00
25722;BME280;13578;53.450;15.496;2023-05-25T03:07:42;100317.53;;;8.11;100.00
25722;BME280;13578;53.450;15.496;2023-05-25T03:10:43;100318.19;;;8.15;100.00
25722;BME280;13578;53.450;15.496;2023-05-25T03:13:43;100326.94;;;8.33;100.00
25722;BME280;13578;53.450;15.496;2023-05-25T03:16:44;100323.97;;;8.49;100.00
25722;BME280;13578;53.450;15.496;2023-05-25T03:19:45;100339.28;;;8.64;100.00
25722;BME280;13578;53.450;15.496;2023-05-25T03:22:45;100357.75;;;8.73;100.00
25722;BME280;13578;53.450;15.496;2023-05-25T03:25:46;100367.69;;;8.74;100.00
25722;BME280;13578;53.450;15.496;2023-05-25T03:28:47;100368.09;;;8.94;100.00
25722;BME280;13578;53.450;15.496;2023-05-25T03:31:47;100379.72;;;9.22;100.00
25722;BME280;13578;53.450;15.496;2023-05-25T03:34:48;100379.16;;;9.54;100.00
25722;BME280;13578;53.450;15.496;2023-05-25T03:37:48;100385.75;;;9.87;100.00
25722;BME280;13578;53.450;15.496;2023-05-25T03:40:49;100401.19;;;10.24;100.00
25722;BME280;13578;53.450;15.496;2023-05-25T03:43:50;100424.06;;;10.47;100.00
25722;BME280;13578;53.450;15.496;2023-05-25T03:46:50;100436.44;;;10.64;100.00
25722;BME280;13578;53.450;15.496;2023-05-25T03:49:51;100437.81;;;10.81;100.00
25722;BME280;13578;53.450;15.496;2023-05-25T03:52:52;100454.16;;;10.94;100.00
25722;BME280;13578;53.450;15.496;2023-05-25T03:55:52;100461.03;;;11.00;100.00
25722;BME280;13578;53.450;15.496;2023-05-25T03:58:53;100461.78;;;11.02;100.00
25722;BME280;13578;53.450;15.496;2023-05-25T04:01:54;100460.53;;;11.06;100.00
25722;BME280;13578;53.450;15.496;2023-05-25T04:04:54;100462.28;;;11.07;100.00
25722;BME280;13578;53.450;15.496;2023-05-25T04:07:56;100457.66;;;11.19;100.00
25722;BME280;13578;53.450;15.496;2023-05-25T04:10:56;100457.91;;;11.27;100.00
25722;BME280;13578;53.450;15.496;2023-05-25T04:13:57;100461.53;;;11.27;100.00
25722;BME280;13578;53.450;15.496;2023-05-25T04:16:59;100460.00;;;11.35;100.00
25722;BME280;13578;53.450;15.496;2023-05-25T04:19:59;100453.00;;;11.42;100.00
25722;BME280;13578;53.450;15.496;2023-05-25T04:23:00;100451.44;;;11.60;100.00
25722;BME280;13578;53.450;15.496;2023-05-25T04:26:01;100450.28;;;11.74;100.00
25722;BME280;13578;53.450;15.496;2023-05-25T04:29:02;100449.91;;;11.79;100.00
25722;BME280;13578;53.450;15.496;2023-05-25T04:32:03;100452.13;;;11.97;100.00
25722;BME280;13578;53.450;15.496;2023-05-25T04:35:04;100455.81;;;12.07;100.00
25722;BME280;13578;53.450;15.496;2023-05-25T04:38:05;100460.41;;;12.18;100.00
25722;BME280;13578;53.450;15.496;2023-05-25T04:41:07;100462.50;;;12.26;100.00
25722;BME280;13578;53.450;15.496;2023-05-25T04:44:07;100458.84;;;12.25;100.00
25722;BME280;13578;53.450;15.496;2023-05-25T04:47:08;100447.09;;;12.23;100.00
25722;BME280;13578;53.450;15.496;2023-05-25T04:50:10;100449.44;;;12.28;100.00
25722;BME280;13578;53.450;15.496;2023-05-25T04:53:11;100454.25;;;12.26;100.00
25722;BME280;13578;53.450;15.496;2023-05-25T04:56:11;100456.63;;;12.19;100.00
25722;BME280;13578;53.450;15.496;2023-05-25T04:59:12;100449.66;;;12.15;100.00
25722;BME280;13578;53.450;15.496;2023-05-25T05:02:12;100448.38;;;12.19;100.00
25722;BME280;13578;53.450;15.496;2023-05-25T05:05:13;100449.66;;;12.15;100.00
25722;BME280;13578;53.450;15.496;2023-05-25T05:08:14;100458.47;;;12.30;100.00
25722;BME280;13578;53.450;15.496;2023-05-25T05:11:14;100439.59;;;12.46;100.00
25722;BME280;13578;53.450;15.496;2023-05-25T05:14:15;100452.28;;;12.59;100.00
25722;BME280;13578;53.450;15.496;2023-05-25T05:17:16;100453.41;;;12.77;100.00
25722;BME280;13578;53.450;15.496;2023-05-25T05:20:16;100458.38;;;12.83;100.00
25722;BME280;13578;53.450;15.496;2023-05-25T05:23:17;100459.59;;;12.69;100.00
25722;BME280;13578;53.450;15.496;2023-05-25T05:26:18;100459.44;;;12.71;100.00
25722;BME280;13578;53.450;15.496;2023-05-25T05:29:20;100466.28;;;12.77;100.00
25722;BME280;13578;53.450;15.496;2023-05-25T05:32:21;100467.44;;;12.74;100.00
25722;BME280;13578;53.450;15.496;2023-05-25T05:35:21;100464.09;;;12.70;100.00
25722;BME280;13578;53.450;15.496;2023-05-25T05:38:22;100476.16;;;12.79;100.00
25722;BME280;13578;53.450;15.496;2023-05-25T05:41:22;100484.72;;;12.76;100.00
25722;BME280;13578;53.450;15.496;2023-05-25T05:44:23;100488.06;;;12.80;100.00
25722;BME280;13578;53.450;15.496;2023-05-25T05:47:24;100493.06;;;12.96;100.00
25722;BME280;13578;53.450;15.496;2023-05-25T05:50:25;100498.22;;;13.10;100.00
25722;BME280;13578;53.450;15.496;2023-05-25T05:53:26;100506.03;;;13.05;100.00
25722;BME280;13578;53.450;15.496;2023-05-25T05:56:26;100510.84;;;13.13;100.00
25722;BME280;13578;53.450;15.496;2023-05-25T05:59:27;100512.03;;;13.20;100.00
25722;BME280;13578;53.450;15.496;2023-05-25T06:02:27;100498.63;;;13.06;100.00
25722;BME280;13578;53.450;15.496;2023-05-25T06:05:28;100497.09;;;13.23;100.00
25722;BME280;13578;53.450;15.496;2023-05-25T06:08:29;100498.88;;;13.33;100.00
25722;BME280;13578;53.450;15.496;2023-05-25T06:11:29;100501.59;;;13.45;100.00
25722;BME280;13578;53.450;15.496;2023-05-25T06:14:30;100508.88;;;13.56;100.00
25722;BME280;13578;53.450;15.496;2023-05-25T06:17:31;100515.84;;;13.60;100.00
25722;BME280;13578;53.450;15.496;2023-05-25T06:20:31;100516.59;;;13.72;100.00
25722;BME280;13578;53.450;15.496;2023-05-25T06:23:32;100524.03;;;13.81;100.00
25722;BME280;13578;53.450;15.496;2023-05-25T06:26:32;100523.19;;;13.90;100.00
25722;BME280;13578;53.450;15.496;2023-05-25T06:29:33;100521.19;;;14.02;100.00
25722;BME280;13578;53.450;15.496;2023-05-25T06:32:34;100524.22;;;14.19;100.00
25722;BME280;13578;53.450;15.496;2023-05-25T06:35:35;100525.13;;;14.29;100.00
25722;BME280;13578;53.450;15.496;2023-05-25T06:38:35;100534.69;;;14.25;100.00
25722;BME280;13578;53.450;15.496;2023-05-25T06:41:37;100526.28;;;14.36;100.00
25722;BME280;13578;53.450;15.496;2023-05-25T06:44:38;100538.34;;;14.35;100.00
25722;BME280;13578;53.450;15.496;2023-05-25T06:47:39;100536.56;;;14.44;100.00
25722;BME280;13578;53.450;15.496;2023-05-25T06:50:39;100533.53;;;14.47;100.00
25722;BME280;13578;53.450;15.496;2023-05-25T06:53:42;100541.97;;;14.45;100.00
25722;BME280;13578;53.450;15.496;2023-05-25T06:56:44;100550.09;;;14.57;100.00
25722;BME280;13578;53.450;15.496;2023-05-25T06:59:44;100537.91;;;14.79;100.00
25722;BME280;13578;53.450;15.496;2023-05-25T07:02:45;100537.44;;;14.93;100.00
25722;BME280;13578;53.450;15.496;2023-05-25T07:05:46;100541.94;;;14.95;100.00
25722;BME280;13578;53.450;15.496;2023-05-25T07:08:46;100545.13;;;15.00;100.00
25722;BME280;13578;53.450;15.496;2023-05-25T07:11:47;100549.00;;;15.17;100.00
25722;BME280;13578;53.450;15.496;2023-05-25T07:14:48;100545.03;;;15.29;100.00
25722;BME280;13578;53.450;15.496;2023-05-25T07:17:49;100551.97;;;15.43;100.00
25722;BME280;13578;53.450;15.496;2023-05-25T07:20:49;100547.00;;;15.47;100.00
25722;BME280;13578;53.450;15.496;2023-05-25T07:23:50;100557.69;;;15.42;100.00
25722;BME280;13578;53.450;15.496;2023-05-25T07:26:51;100559.31;;;15.62;100.00
25722;BME280;13578;53.450;15.496;2023-05-25T07:29:51;100567.53;;;15.82;100.00
25722;BME280;13578;53.450;15.496;2023-05-25T07:32:52;100563.47;;;15.86;100.00
25722;BME280;13578;53.450;15.496;2023-05-25T07:35:53;100565.34;;;15.85;100.00
25722;BME280;13578;53.450;15.496;2023-05-25T07:38:53;100570.34;;;16.00;100.00
25722;BME280;13578;53.450;15.496;2023-05-25T07:41:54;100566.59;;;16.37;100.00
25722;BME280;13578;53.450;15.496;2023-05-25T07:44:54;100561.72;;;16.31;100.00
25722;BME280;13578;53.450;15.496;2023-05-25T07:47:55;100566.59;;;16.37;100.00
25722;BME280;13578;53.450;15.496;2023-05-25T07:50:56;100551.56;;;16.40;100.00
25722;BME280;13578;53.450;15.496;2023-05-25T07:53:57;100555.44;;;16.47;100.00
25722;BME280;13578;53.450;15.496;2023-05-25T07:56:57;100567.63;;;16.54;100.00
25722;BME280;13578;53.450;15.496;2023-05-25T07:59:58;100558.38;;;16.63;100.00
25722;BME280;13578;53.450;15.496;2023-05-25T08:02:59;100543.81;;;16.61;100.00
25722;BME280;13578;53.450;15.496;2023-05-25T08:06:01;100535.19;;;16.64;100.00
25722;BME280;13578;53.450;15.496;2023-05-25T08:09:03;100556.06;;;16.77;100.00
25722;BME280;13578;53.450;15.496;2023-05-25T08:12:04;100550.41;;;16.87;100.00
25722;BME280;13578;53.450;15.496;2023-05-25T08:15:05;100552.56;;;16.93;100.00
25722;BME280;13578;53.450;15.496;2023-05-25T08:18:06;100530.44;;;17.01;100.00
25722;BME280;13578;53.450;15.496;2023-05-25T08:21:06;100547.75;;;16.95;100.00
25722;BME280;13578;53.450;15.496;2023-05-25T08:24:07;100546.59;;;17.06;100.00
25722;BME280;13578;53.450;15.496;2023-05-25T08:27:08;100539.19;;;17.14;100.00
25722;BME280;13578;53.450;15.496;2023-05-25T08:30:08;100539.78;;;17.26;100.00
25722;BME280;13578;53.450;15.496;2023-05-25T08:33:09;100534.97;;;17.28;100.00
25722;BME280;13578;53.450;15.496;2023-05-25T08:36:10;100545.03;;;17.29;100.00
25722;BME280;13578;53.450;15.496;2023-05-25T08:39:10;100532.28;;;17.45;100.00
25722;BME280;13578;53.450;15.496;2023-05-25T08:42:12;100534.41;;;17.51;100.00
25722;BME280;13578;53.450;15.496;2023-05-25T08:45:13;100538.56;;;17.55;100.00
25722;BME280;13578;53.450;15.496;2023-05-25T08:48:14;100536.91;;;17.71;100.00
25722;BME280;13578;53.450;15.496;2023-05-25T08:51:17;100549.47;;;17.83;100.00
25722;BME280;13578;53.450;15.496;2023-05-25T08:54:24;100526.75;;;17.88;100.00
25722;BME280;13578;53.450;15.496;2023-05-25T08:57:42;100519.34;;;17.97;100.00
25722;BME280;13578;53.450;15.496;2023-05-25T09:00:56;100544.88;;;18.08;100.00
25722;BME280;13578;53.450;15.496;2023-05-25T09:03:58;100519.72;;;18.10;100.00
25722;BME280;13578;53.450;15.496;2023-05-25T09:07:00;100540.56;;;18.22;100.00
25722;BME280;13578;53.450;15.496;2023-05-25T09:10:01;100538.00;;;18.46;100.00
25722;BME280;13578;53.450;15.496;2023-05-25T09:13:03;100514.19;;;18.43;100.00
25722;BME280;13578;53.450;15.496;2023-05-25T09:16:04;100543.75;;;18.61;100.00
25722;BME280;13578;53.450;15.496;2023-05-25T09:19:05;100528.47;;;18.65;100.00
25722;BME280;13578;53.450;15.496;2023-05-25T09:22:06;100540.09;;;18.85;100.00
25722;BME280;13578;53.450;15.496;2023-05-25T09:25:09;100552.94;;;18.86;100.00
25722;BME280;13578;53.450;15.496;2023-05-25T09:28:10;100551.53;;;19.31;100.00
25722;BME280;13578;53.450;15.496;2023-05-25T09:31:11;100528.44;;;19.23;100.00
25722;BME280;13578;53.450;15.496;2023-05-25T09:34:12;100515.84;;;19.43;100.00
25722;BME280;13578;53.450;15.496;2023-05-25T09:37:14;100532.88;;;19.40;100.00
25722;BME280;13578;53.450;15.496;2023-05-25T09:40:16;100519.56;;;19.19;100.00
25722;BME280;13578;53.450;15.496;2023-05-25T09:43:16;100517.31;;;19.14;100.00
25722;BME280;13578;53.450;15.496;2023-05-25T09:46:19;100536.81;;;18.56;100.00
25722;BME280;13578;53.450;15.496;2023-05-25T09:49:20;100558.00;;;18.49;100.00
25722;BME280;13578;53.450;15.496;2023-05-25T09:52:21;100553.47;;;18.73;100.00
25722;BME280;13578;53.450;15.496;2023-05-25T09:55:21;100541.16;;;18.76;100.00
25722;BME280;13578;53.450;15.496;2023-05-25T09:58:22;100551.22;;;18.60;100.00
25722;BME280;13578;53.450;15.496;2023-05-25T10:01:25;100568.59;;;18.54;100.00
25722;BME280;13578;53.450;15.496;2023-05-25T10:04:26;100575.00;;;18.54;100.00
25722;BME280;13578;53.450;15.496;2023-05-25T10:07:27;100565.59;;;18.39;100.00
25722;BME280;13578;53.450;15.496;2023-05-25T10:10:28;100561.97;;;18.38;100.00
25722;BME280;13578;53.450;15.496;2023-05-25T10:13:31;100570.16;;;18.73;100.00
25722;BME280;13578;53.450;15.496;2023-05-25T10:16:33;100575.53;;;18.50;100.00
25722;BME280;13578;53.450;15.496;2023-05-25T10:19:40;100571.88;;;18.49;100.00
25722;BME280;13578;53.450;15.496;2023-05-25T10:23:43;100573.06;;;18.30;100.00
25722;BME280;13578;53.450;15.496;2023-05-25T10:26:17;100551.03;;;18.62;100.00
25722;BME280;13578;53.450;15.496;2023-05-25T10:29:19;100550.88;;;18.88;100.00
25722;BME280;13578;53.450;15.496;2023-05-25T10:32:21;100571.41;;;19.20;100.00
25722;BME280;13578;53.450;15.496;2023-05-25T10:35:23;100573.66;;;19.73;100.00
25722;BME280;13578;53.450;15.496;2023-05-25T10:38:25;100566.91;;;20.15;100.00
25722;BME280;13578;53.450;15.496;2023-05-25T10:41:26;100537.31;;;20.14;100.00
25722;BME280;13578;53.450;15.496;2023-05-25T10:44:28;100540.06;;;19.82;100.00
25722;BME280;13578;53.450;15.496;2023-05-25T10:47:29;100548.84;;;19.55;100.00
25722;BME280;13578;53.450;15.496;2023-05-25T10:50:34;100550.69;;;19.14;100.00
25722;BME280;13578;53.450;15.496;2023-05-25T10:53:35;100558.72;;;18.93;100.00
25722;BME280;13578;53.450;15.496;2023-05-25T10:56:35;100581.13;;;18.83;100.00
25722;BME280;13578;53.450;15.496;2023-05-25T10:59:39;100599.16;;;18.70;100.00
25722;BME280;13578;53.450;15.496;2023-05-25T11:02:50;100593.59;;;18.70;100.00
25722;BME280;13578;53.450;15.496;2023-05-25T11:05:54;100588.44;;;19.17;100.00
25722;BME280;13578;53.450;15.496;2023-05-25T11:08:59;100562.25;;;19.51;100.00
25722;BME280;13578;53.450;15.496;2023-05-25T11:12:02;100557.13;;;19.88;100.00
25722;BME280;13578;53.450;15.496;2023-05-25T11:15:13;100542.78;;;19.99;100.00
25722;BME280;13578;53.450;15.496;2023-05-25T11:18:14;100576.75;;;19.94;100.00
25722;BME280;13578;53.450;15.496;2023-05-25T11:21:16;100564.25;;;20.22;100.00
25722;BME280;13578;53.450;15.496;2023-05-25T11:24:20;100552.81;;;20.40;100.00
25722;BME280;13578;53.450;15.496;2023-05-25T11:27:26;100545.75;;;19.97;100.00
25722;BME280;13578;53.450;15.496;2023-05-25T11:30:27;100554.13;;;19.33;100.00
25722;BME280;13578;53.450;15.496;2023-05-25T11:33:28;100572.13;;;18.97;100.00
25722;BME280;13578;53.450;15.496;2023-05-25T11:36:30;100590.66;;;18.88;100.00
25722;BME280;13578;53.450;15.496;2023-05-25T11:39:32;100603.50;;;18.81;100.00
25722;BME280;13578;53.450;15.496;2023-05-25T11:42:33;100607.34;;;18.80;100.00
25722;BME280;13578;53.450;15.496;2023-05-25T11:45:33;100588.44;;;19.00;100.00
25722;BME280;13578;53.450;15.496;2023-05-25T11:48:36;100577.81;;;19.12;100.00
25722;BME280;13578;53.450;15.496;2023-05-25T11:51:42;100594.69;;;19.19;100.00
25722;BME280;13578;53.450;15.496;2023-05-25T11:54:43;100608.75;;;18.76;100.00
25722;BME280;13578;53.450;15.496;2023-05-25T11:57:44;100612.00;;;18.38;100.00
25722;BME280;13578;53.450;15.496;2023-05-25T12:00:44;100609.69;;;18.25;100.00
25722;BME280;13578;53.450;15.496;2023-05-25T12:03:46;100617.66;;;18.20;100.00
25722;BME280;13578;53.450;15.496;2023-05-25T12:06:47;100600.22;;;18.02;100.00
25722;BME280;13578;53.450;15.496;2023-05-25T12:09:49;100606.50;;;18.04;100.00
25722;BME280;13578;53.450;15.496;2023-05-25T12:12:50;100603.25;;;18.17;100.00
25722;BME280;13578;53.450;15.496;2023-05-25T12:15:54;100599.28;;;18.28;100.00
25722;BME280;13578;53.450;15.496;2023-05-25T12:18:57;100602.47;;;18.49;100.00
25722;BME280;13578;53.450;15.496;2023-05-25T12:21:58;100584.41;;;18.70;100.00
25722;BME280;13578;53.450;15.496;2023-05-25T12:24:58;100585.84;;;18.99;100.00
25722;BME280;13578;53.450;15.496;2023-05-25T12:28:13;100570.19;;;19.14;100.00
25722;BME280;13578;53.450;15.496;2023-05-25T12:31:24;100589.81;;;19.13;100.00
25722;BME280;13578;53.450;15.496;2023-05-25T12:34:26;100597.94;;;18.73;100.00
25722;BME280;13578;53.450;15.496;2023-05-25T12:37:30;100605.53;;;18.38;100.00
25722;BME280;13578;53.450;15.496;2023-05-25T12:40:31;100611.78;;;18.32;100.00
25722;BME280;13578;53.450;15.496;2023-05-25T12:43:38;100602.44;;;18.41;100.00
25722;BME280;13578;53.450;15.496;2023-05-25T12:46:39;100599.34;;;18.61;100.00
25722;BME280;13578;53.450;15.496;2023-05-25T12:49:42;100596.06;;;18.73;100.00
25722;BME280;13578;53.450;15.496;2023-05-25T12:52:44;100586.69;;;18.75;100.00
25722;BME280;13578;53.450;15.496;2023-05-25T12:55:46;100584.44;;;18.95;100.00
25722;BME280;13578;53.450;15.496;2023-05-25T12:58:47;100567.75;;;18.95;100.00
25722;BME280;13578;53.450;15.496;2023-05-25T13:01:47;100577.47;;;18.57;100.00
25722;BME280;13578;53.450;15.496;2023-05-25T13:04:48;100595.16;;;18.56;100.00
25722;BME280;13578;53.450;15.496;2023-05-25T13:07:49;100588.56;;;18.74;100.00
25722;BME280;13578;53.450;15.496;2023-05-25T13:10:50;100593.06;;;18.58;100.00
25722;BME280;13578;53.450;15.496;2023-05-25T13:13:51;100600.38;;;18.68;100.00
25722;BME280;13578;53.450;15.496;2023-05-25T13:16:53;100583.66;;;18.35;100.00
25722;BME280;13578;53.450;15.496;2023-05-25T13:19:54;100593.72;;;18.28;100.00
25722;BME280;13578;53.450;15.496;2023-05-25T13:22:54;100586.56;;;18.17;100.00
25722;BME280;13578;53.450;15.496;2023-05-25T13:25:55;100587.41;;;18.09;100.00
25722;BME280;13578;53.450;15.496;2023-05-25T13:28:55;100589.00;;;18.20;100.00
25722;BME280;13578;53.450;15.496;2023-05-25T13:31:56;100578.41;;;18.23;100.00
25722;BME280;13578;53.450;15.496;2023-05-25T13:34:57;100582.63;;;18.44;100.00
25722;BME280;13578;53.450;15.496;2023-05-25T13:37:59;100584.06;;;18.81;100.00
25722;BME280;13578;53.450;15.496;2023-05-25T13:41:00;100594.00;;;19.00;100.00
25722;BME280;13578;53.450;15.496;2023-05-25T13:44:01;100571.34;;;19.28;100.00
25722;BME280;13578;53.450;15.496;2023-05-25T13:47:01;100564.66;;;19.62;100.00
25722;BME280;13578;53.450;15.496;2023-05-25T13:50:02;100558.88;;;19.72;100.00
25722;BME280;13578;53.450;15.496;2023-05-25T13:53:03;100556.28;;;19.71;100.00
25722;BME280;13578;53.450;15.496;2023-05-25T13:56:05;100554.72;;;19.68;100.00
25722;BME280;13578;53.450;15.496;2023-05-25T13:59:06;100537.94;;;19.45;100.00
25722;BME280;13578;53.450;15.496;2023-05-25T14:02:06;100538.13;;;19.35;100.00
25722;BME280;13578;53.450;15.496;2023-05-25T14:05:07;100548.59;;;19.25;100.00
25722;BME280;13578;53.450;15.496;2023-05-25T14:08:08;100528.06;;;19.17;100.00
25722;BME280;13578;53.450;15.496;2023-05-25T14:11:08;100537.63;;;19.23;100.00
25722;BME280;13578;53.450;15.496;2023-05-25T14:14:09;100519.34;;;19.45;100.00
25722;BME280;13578;53.450;15.496;2023-05-25T14:17:10;100520.34;;;19.52;100.00
25722;BME280;13578;53.450;15.496;2023-05-25T14:20:10;100513.69;;;19.53;100.00
25722;BME280;13578;53.450;15.496;2023-05-25T14:23:15;100508.06;;;19.30;100.00
25722;BME280;13578;53.450;15.496;2023-05-25T14:26:15;100513.53;;;18.99;100.00
25722;BME280;13578;53.450;15.496;2023-05-25T14:29:16;100523.56;;;18.58;100.00
25722;BME280;13578;53.450;15.496;2023-05-25T14:32:17;100518.19;;;18.40;100.00
25722;BME280;13578;53.450;15.496;2023-05-25T14:35:18;100540.41;;;18.40;100.00
25722;BME280;13578;53.450;15.496;2023-05-25T14:38:19;100530.88;;;18.43;100.00
25722;BME280;13578;53.450;15.496;2023-05-25T14:41:19;100540.44;;;18.57;100.00
25722;BME280;13578;53.450;15.496;2023-05-25T14:44:21;100523.59;;;18.50;100.00
25722;BME280;13578;53.450;15.496;2023-05-25T14:47:22;100539.72;;;18.47;100.00
25722;BME280;13578;53.450;15.496;2023-05-25T14:50:23;100537.84;;;18.47;100.00
25722;BME280;13578;53.450;15.496;2023-05-25T14:53:23;100563.84;;;18.38;100.00
25722;BME280;13578;53.450;15.496;2023-05-25T14:56:24;100568.19;;;18.32;100.00
25722;BME280;13578;53.450;15.496;2023-05-25T14:59:25;100580.50;;;18.30;100.00
25722;BME280;13578;53.450;15.496;2023-05-25T15:02:26;100574.13;;;18.46;100.00
25722;BME280;13578;53.450;15.496;2023-05-25T15:05:27;100560.09;;;18.64;100.00
25722;BME280;13578;53.450;15.496;2023-05-25T15:08:27;100551.06;;;18.78;100.00
25722;BME280;13578;53.450;15.496;2023-05-25T15:11:28;100544.44;;;18.63;100.00
25722;BME280;13578;53.450;15.496;2023-05-25T15:14:29;100565.97;;;18.52;100.00
25722;BME280;13578;53.450;15.496;2023-05-25T15:17:29;100566.47;;;18.48;100.00
25722;BME280;13578;53.450;15.496;2023-05-25T15:20:30;100561.06;;;18.30;100.00
25722;BME280;13578;53.450;15.496;2023-05-25T15:23:31;100566.78;;;18.20;100.00
25722;BME280;13578;53.450;15.496;2023-05-25T15:26:32;100567.78;;;18.10;100.00
25722;BME280;13578;53.450;15.496;2023-05-25T15:29:32;100568.63;;;18.03;100.00